aviador You're here:

WIII Decoded Metar

JAKARTA in INDONESIA
Report Time2017-12-13 10:30:00
UTC Time2017-12-13 10:51:13
Flight Rules vfr VFR
Wind230° at 12 kt
W.Decomp.*RWY 25: 11.3 kt HW 4.1 kt LCW
W.Rank230° ranks 10
Current wind is above 230° avg. (5.6)
Visibility8000 m
Phenomena:N/A
Clouds:Scattered 021 Hf
Expected CloudBase > 1,600 ft AGL from Temp-Dew spread
CeilingNone
Temp28°C (ISA +13)
Dew Point24°C (79% RH)
Heat Index31.9°C
QNH1009 hPa
Density Alt2,054 ft
Elevation26 ft
Report Wrong Elevation
Raw Report
METAR WIII 131030Z 23012KT 8000 SCT021 28/24 Q1009 NOSIG=

Extra information for WIII:More info

Metar Taf Metar & Taf Last 4 Metars F.Rules Stats Wind Profile Meteogram Temp Stats Airport Information Weather charts Add Link Nearby VenuesMetar ALERT Operation Metar Decoded Social comments